Flight Track Log - Related Links

Times and Time Zones

All times are in EDT time to prevent confusion due to time zone crossing. See the UAL3744 flight status page for this flight to view local times or setup timezone preferences in your user account.

Time Position Orientation Groundspeed Altitude Reporting Facility
EDT Latitude Longitude Course Direction KTS MPH feet Rate Location/Type
Thu 05:34:07 AM 33.0103 -80.0042 14° North 224 258 5,400  Level Jacksonville Center
Thu 05:35:00 AM 33.3508 -79.8913 23° Northeast  Level FlightAware Approximate
Thu 05:35:07 AM 33.0703 -79.9850 15° North 242 278 8,100  Level Jacksonville Center
Thu 05:36:00 AM 33.4689 -79.8613 13° North  Level FlightAware Approximate
Thu 05:36:07 AM 33.1386 -79.9606 17° North 250 288 10,000  Level Jacksonville Center
Thu 05:37:00 AM 33.5867 -79.8277 13° North  Level FlightAware Approximate
Thu 05:37:07 AM 33.2192 -79.9256 20° North 278 320 11,700  Level Jacksonville Center
Thu 05:38:00 AM 33.7044 -79.7937 14° North  Level FlightAware Approximate
Thu 05:38:07 AM 33.3144 -79.8875 18° North 323 372 13,800  Level Jacksonville Center
Thu 05:39:00 AM 33.8218 -79.7585 14° North  Level FlightAware Approximate
Thu 05:39:07 AM 33.4136 -79.8444 20° North 350 403 16,200  Level Jacksonville Center
Thu 05:40:07 AM 33.5147 -79.8036 19° North 369 425 17,900 1,900 Climbing Jacksonville Center
Thu 05:41:07 AM 33.6161 -79.7600 20° North 381 438 20,000 1,850 Climbing Jacksonville Center
Thu 05:42:07 AM 33.7214 -79.7164 19° North 381 438 21,600 1,450 Climbing Jacksonville Center
Thu 05:43:07 AM 33.8286 -79.6725 19° North 387 445 22,900 1,250 Climbing Jacksonville Center
Thu 05:44:07 AM 33.9403 -79.6258 19° North 405 466 24,100 1,200 Climbing Jacksonville Center
Thu 05:45:07 AM 34.0514 -79.5742 21° North 417 480 25,300 1,071 Climbing Jacksonville Center
Thu 05:47:23 AM 34.3136 -79.4639 19° North 435 501 27,600 1,010 Climbing Washington Center
Thu 05:48:23 AM 34.4342 -79.4117 20° North 445 512 28,600 700 Climbing Washington Center
Thu 05:49:23 AM 34.5550 -79.3544 21° North 451 519 29,000 200 Climbing Washington Center
Thu 05:50:23 AM 34.6739 -79.2917 23° Northeast 457 526 29,000  Level Washington Center
Thu 05:51:23 AM 34.7922 -79.2364 21° North 457 526 29,000  Level Washington Center
Thu 05:52:23 AM 34.9131 -79.1783 22° Northeast 457 526 29,000  Level Washington Center
Thu 05:53:24 AM 35.0358 -79.1153 23° Northeast 462 532 29,000  Level Washington Center
Thu 05:54:23 AM 35.1567 -79.0547 22° Northeast 462 532 29,000  Level Washington Center
Thu 05:55:23 AM 35.2794 -78.9939 22° Northeast 462 532 29,000  Level Washington Center
Thu 05:56:23 AM 35.4000 -78.9353 22° Northeast 462 532 29,000  Level Washington Center
Thu 05:57:23 AM 35.5206 -78.8739 23° Northeast 462 532 29,000  Level Washington Center
Thu 05:58:23 AM 35.6539 -78.8078 22° Northeast 462 532 29,000  Level Washington Center
Thu 05:59:23 AM 35.7744 -78.7461 23° Northeast 462 532 29,000  Level Washington Center
Thu 06:00:23 AM 35.8950 -78.6842 23° Northeast 462 532 29,000  Level Washington Center
Thu 06:01:23 AM 36.0133 -78.6222 23° Northeast 462 532 29,000  Level Washington Center
Thu 06:02:23 AM 36.1339 -78.5597 23° Northeast 462 532 29,000  Level Washington Center
Thu 06:03:23 AM 36.2564 -78.4975 22° Northeast 462 532 29,000  Level Washington Center
Thu 06:04:23 AM 36.3789 -78.4350 22° Northeast 462 532 29,000  Level Washington Center
Thu 06:05:23 AM 36.5014 -78.3722 22° Northeast 462 532 29,000  Level Washington Center
Thu 06:06:23 AM 36.6197 -78.3092 23° Northeast 462 532 29,000  Level Washington Center
Thu 06:07:23 AM 36.7358 -78.2458 24° Northeast 462 532 29,000 -50 Level Washington Center
Thu 06:08:23 AM 36.8542 -78.1850 22° Northeast 462 532 28,900 -650 Descending Washington Center
Thu 06:09:23 AM 36.9742 -78.1242 22° Northeast 462 532 27,700 -1,200 Descending Washington Center
Thu 06:10:23 AM 37.0903 -78.0603 24° Northeast 462 532 26,500 -1,200 Descending Washington Center
Thu 06:11:23 AM 37.2064 -77.9986 23° Northeast 462 532 25,300 -1,200 Descending Washington Center
Thu 06:12:23 AM 37.3203 -77.9397 22° Northeast 456 525 24,100 -1,200 Descending Washington Center
Thu 06:13:23 AM 37.4319 -77.8803 23° Northeast 438 504 22,900 -1,200 Descending Washington Center
Thu 06:14:23 AM 37.5436 -77.8181 24° Northeast 438 504 21,700 -1,600 Descending Washington Center
Thu 06:15:23 AM 37.6511 -77.7558 25° Northeast 433 498 19,700 -1,900 Descending Washington Center
Thu 06:16:23 AM 37.7564 -77.6958 24° Northeast 420 483 17,900 -2,000 Descending Washington Center
Thu 06:17:23 AM 37.8597 -77.6328 26° Northeast 410 472 15,700 -2,300 Descending Washington Center
Thu 06:18:23 AM 37.9608 -77.5775 23° Northeast 398 458 13,300 -2,200 Descending Washington Center
Thu 06:19:23 AM 38.0386 -77.5322 25° Northeast 368 423 11,300 -1,700 Descending Washington Center
Thu 06:20:23 AM 38.1269 -77.4844 23° Northeast 348 400 9,900 -700 Descending Washington Center
Thu 06:21:23 AM 38.2108 -77.4628 11° North 321 369 9,900 -450 Level Washington Center
Thu 06:22:23 AM 38.2925 -77.4436 10° North 306 352 9,000 -1,050 Descending Washington Center
Thu 06:23:23 AM 38.3719 -77.4217 12° North 295 339 7,800 -1,250 Descending Washington Center
Thu 06:24:23 AM 38.4517 -77.3997 12° North 295 339 6,500 -1,300 Descending Washington Center
Thu 06:25:23 AM 38.5289 -77.3806 11° North 290 334 5,200 -800 Descending Washington Center
Thu 06:26:23 AM 38.6064 -77.3664 North 290 334 4,900 -558 Descending Washington Center
Thu 06:26:49 AM 38.6500 -77.3667 360° North 282 325 4,400 -667 Descending Potomac TRACON
Thu 06:27:44 AM 38.7167 -77.3667 360° North 282 325 4,000 -211 Descending Potomac TRACON
Thu 06:28:43 AM 38.8000 -77.3500 North 278 320 4,000 -425 Level Potomac TRACON
Thu 06:29:37 AM 38.8667 -77.3500 360° North 276 318 3,200 -526 Descending Potomac TRACON
Thu 06:30:37 AM 38.9333 -77.3500 360° North 274 315 3,000 -104 Descending Potomac TRACON
Thu 06:31:32 AM 39.0167 -77.3500 360° North 270 311 3,000 -440 Level Potomac TRACON
Thu 06:32:26 AM 39.0667 -77.3500 360° North 250 288 2,200 -556 Descending Potomac TRACON
Thu 06:33:20 AM 39.0833 -77.4167 288° West 240 276 2,000 -158 Descending Potomac TRACON
Thu 06:34:20 AM 39.0333 -77.4333 195° South 197 227 1,900 -450 Descending Potomac TRACON
Thu 06:35:20 AM 39.0000 -77.4333 180° South 140 161 1,100 -800 Descending Potomac TRACON

Login

Don't have an account? Register now (free) for customized features, flight alerts, and more!